sensor_id;sensor_type;location;lat;lon;timestamp;P1;durP1;ratioP1;P2;durP2;ratioP2
11078;SDS011;5592;49.234;7.268;2022-07-06T00:00:42;2.37;;;2.13;;
11078;SDS011;5592;49.234;7.268;2022-07-06T00:03:08;4.07;;;2.33;;
11078;SDS011;5592;49.234;7.268;2022-07-06T00:05:33;2.50;;;2.30;;
11078;SDS011;5592;49.234;7.268;2022-07-06T00:07:59;5.30;;;2.70;;
11078;SDS011;5592;49.234;7.268;2022-07-06T00:10:25;3.90;;;2.70;;
11078;SDS011;5592;49.234;7.268;2022-07-06T00:12:50;4.53;;;2.77;;
11078;SDS011;5592;49.234;7.268;2022-07-06T00:15:16;4.33;;;2.30;;
11078;SDS011;5592;49.234;7.268;2022-07-06T00:17:42;4.07;;;2.70;;
11078;SDS011;5592;49.234;7.268;2022-07-06T00:20:07;4.40;;;3.10;;
11078;SDS011;5592;49.234;7.268;2022-07-06T00:22:33;8.47;;;3.30;;
11078;SDS011;5592;49.234;7.268;2022-07-06T00:24:59;6.97;;;2.90;;
11078;SDS011;5592;49.234;7.268;2022-07-06T00:27:24;4.47;;;2.83;;
11078;SDS011;5592;49.234;7.268;2022-07-06T00:29:50;3.90;;;3.23;;
11078;SDS011;5592;49.234;7.268;2022-07-06T00:32:16;3.50;;;2.90;;
11078;SDS011;5592;49.234;7.268;2022-07-06T00:34:41;7.23;;;3.13;;
11078;SDS011;5592;49.234;7.268;2022-07-06T00:37:07;4.00;;;3.03;;
11078;SDS011;5592;49.234;7.268;2022-07-06T00:39:33;4.77;;;3.33;;
11078;SDS011;5592;49.234;7.268;2022-07-06T00:41:59;7.43;;;3.17;;
11078;SDS011;5592;49.234;7.268;2022-07-06T00:44:25;7.07;;;3.07;;
11078;SDS011;5592;49.234;7.268;2022-07-06T00:46:50;11.53;;;3.20;;
11078;SDS011;5592;49.234;7.268;2022-07-06T00:49:16;3.93;;;3.40;;
11078;SDS011;5592;49.234;7.268;2022-07-06T00:52:00;4.07;;;2.97;;
11078;SDS011;5592;49.234;7.268;2022-07-06T00:54:26;7.07;;;3.10;;
11078;SDS011;5592;49.234;7.268;2022-07-06T00:56:57;6.20;;;3.27;;
11078;SDS011;5592;49.234;7.268;2022-07-06T00:59:23;4.50;;;3.47;;
11078;SDS011;5592;49.234;7.268;2022-07-06T01:01:50;5.27;;;3.30;;
11078;SDS011;5592;49.234;7.268;2022-07-06T01:04:16;5.60;;;3.53;;
11078;SDS011;5592;49.234;7.268;2022-07-06T01:06:41;4.43;;;3.47;;
11078;SDS011;5592;49.234;7.268;2022-07-06T01:09:09;7.13;;;3.57;;
11078;SDS011;5592;49.234;7.268;2022-07-06T01:11:35;8.50;;;3.80;;
11078;SDS011;5592;49.234;7.268;2022-07-06T01:14:00;6.40;;;3.17;;
11078;SDS011;5592;49.234;7.268;2022-07-06T01:16:26;4.90;;;3.03;;
11078;SDS011;5592;49.234;7.268;2022-07-06T01:18:52;4.70;;;3.50;;
11078;SDS011;5592;49.234;7.268;2022-07-06T01:21:18;5.43;;;3.30;;
11078;SDS011;5592;49.234;7.268;2022-07-06T01:23:44;6.80;;;3.30;;
11078;SDS011;5592;49.234;7.268;2022-07-06T01:26:18;4.53;;;3.10;;
11078;SDS011;5592;49.234;7.268;2022-07-06T01:28:45;6.73;;;3.60;;
11078;SDS011;5592;49.234;7.268;2022-07-06T01:31:22;4.87;;;2.83;;
11078;SDS011;5592;49.234;7.268;2022-07-06T01:33:50;3.57;;;3.13;;
11078;SDS011;5592;49.234;7.268;2022-07-06T01:36:19;7.00;;;3.60;;
11078;SDS011;5592;49.234;7.268;2022-07-06T01:38:49;5.33;;;2.90;;
11078;SDS011;5592;49.234;7.268;2022-07-06T01:41:16;4.40;;;3.80;;
11078;SDS011;5592;49.234;7.268;2022-07-06T01:43:42;7.63;;;2.93;;
11078;SDS011;5592;49.234;7.268;2022-07-06T01:46:08;3.23;;;2.90;;
11078;SDS011;5592;49.234;7.268;2022-07-06T01:54:22;3.63;;;2.80;;
11078;SDS011;5592;49.234;7.268;2022-07-06T01:56:47;3.17;;;2.90;;
11078;SDS011;5592;49.234;7.268;2022-07-06T01:59:13;4.63;;;3.63;;
11078;SDS011;5592;49.234;7.268;2022-07-06T02:01:38;3.77;;;3.37;;
11078;SDS011;5592;49.234;7.268;2022-07-06T02:04:04;5.03;;;3.40;;
11078;SDS011;5592;49.234;7.268;2022-07-06T02:06:30;4.10;;;3.37;;
11078;SDS011;5592;49.234;7.268;2022-07-06T02:08:55;3.53;;;3.23;;
11078;SDS011;5592;49.234;7.268;2022-07-06T02:11:22;4.23;;;3.83;;
11078;SDS011;5592;49.234;7.268;2022-07-06T02:13:48;3.93;;;3.53;;
11078;SDS011;5592;49.234;7.268;2022-07-06T02:16:14;9.00;;;3.57;;
11078;SDS011;5592;49.234;7.268;2022-07-06T02:18:40;4.83;;;3.67;;
11078;SDS011;5592;49.234;7.268;2022-07-06T02:21:05;4.97;;;3.83;;
11078;SDS011;5592;49.234;7.268;2022-07-06T02:23:31;4.07;;;3.30;;
11078;SDS011;5592;49.234;7.268;2022-07-06T02:25:57;4.43;;;3.63;;
11078;SDS011;5592;49.234;7.268;2022-07-06T02:28:22;5.10;;;3.77;;
11078;SDS011;5592;49.234;7.268;2022-07-06T02:30:48;4.60;;;3.73;;
11078;SDS011;5592;49.234;7.268;2022-07-06T02:33:14;5.20;;;4.13;;
11078;SDS011;5592;49.234;7.268;2022-07-06T02:35:39;5.73;;;4.80;;
11078;SDS011;5592;49.234;7.268;2022-07-06T02:38:07;6.77;;;4.20;;
11078;SDS011;5592;49.234;7.268;2022-07-06T02:40:36;4.97;;;3.70;;
11078;SDS011;5592;49.234;7.268;2022-07-06T02:43:03;6.40;;;3.67;;
11078;SDS011;5592;49.234;7.268;2022-07-06T02:45:30;5.93;;;4.23;;
11078;SDS011;5592;49.234;7.268;2022-07-06T02:47:56;6.60;;;4.63;;
11078;SDS011;5592;49.234;7.268;2022-07-06T02:50:22;5.73;;;4.60;;
11078;SDS011;5592;49.234;7.268;2022-07-06T02:52:48;5.03;;;4.30;;
11078;SDS011;5592;49.234;7.268;2022-07-06T02:55:14;8.57;;;4.47;;
11078;SDS011;5592;49.234;7.268;2022-07-06T02:57:40;4.40;;;3.97;;
11078;SDS011;5592;49.234;7.268;2022-07-06T03:00:06;3.90;;;3.60;;
11078;SDS011;5592;49.234;7.268;2022-07-06T03:02:32;4.30;;;3.80;;
11078;SDS011;5592;49.234;7.268;2022-07-06T03:04:58;12.30;;;4.10;;
11078;SDS011;5592;49.234;7.268;2022-07-06T03:07:24;4.67;;;3.97;;
11078;SDS011;5592;49.234;7.268;2022-07-06T03:09:49;5.17;;;4.10;;
11078;SDS011;5592;49.234;7.268;2022-07-06T03:12:15;4.40;;;3.97;;
11078;SDS011;5592;49.234;7.268;2022-07-06T03:14:41;7.37;;;4.40;;
11078;SDS011;5592;49.234;7.268;2022-07-06T03:17:07;7.73;;;5.10;;
11078;SDS011;5592;49.234;7.268;2022-07-06T03:19:33;5.97;;;5.30;;
11078;SDS011;5592;49.234;7.268;2022-07-06T03:21:59;6.63;;;5.03;;
11078;SDS011;5592;49.234;7.268;2022-07-06T03:24:24;7.73;;;4.33;;
11078;SDS011;5592;49.234;7.268;2022-07-06T03:26:50;5.90;;;4.80;;
11078;SDS011;5592;49.234;7.268;2022-07-06T03:29:16;5.53;;;4.93;;
11078;SDS011;5592;49.234;7.268;2022-07-06T03:31:41;4.70;;;4.30;;
11078;SDS011;5592;49.234;7.268;2022-07-06T03:34:07;7.63;;;5.03;;
11078;SDS011;5592;49.234;7.268;2022-07-06T03:36:33;7.37;;;5.37;;
11078;SDS011;5592;49.234;7.268;2022-07-06T03:38:58;5.73;;;5.03;;
11078;SDS011;5592;49.234;7.268;2022-07-06T03:41:24;9.80;;;5.00;;
11078;SDS011;5592;49.234;7.268;2022-07-06T03:43:50;5.90;;;5.30;;
11078;SDS011;5592;49.234;7.268;2022-07-06T03:46:15;5.63;;;5.10;;
11078;SDS011;5592;49.234;7.268;2022-07-06T03:48:41;8.33;;;5.33;;
11078;SDS011;5592;49.234;7.268;2022-07-06T03:51:07;8.20;;;5.53;;
11078;SDS011;5592;49.234;7.268;2022-07-06T03:53:32;8.03;;;6.50;;
11078;SDS011;5592;49.234;7.268;2022-07-06T03:55:58;7.23;;;5.97;;
11078;SDS011;5592;49.234;7.268;2022-07-06T03:58:42;6.30;;;5.70;;
11078;SDS011;5592;49.234;7.268;2022-07-06T04:01:08;7.30;;;5.93;;
11078;SDS011;5592;49.234;7.268;2022-07-06T04:03:34;6.50;;;5.60;;
11078;SDS011;5592;49.234;7.268;2022-07-06T04:05:59;6.50;;;5.90;;
11078;SDS011;5592;49.234;7.268;2022-07-06T04:08:25;10.20;;;7.40;;
11078;SDS011;5592;49.234;7.268;2022-07-06T04:10:51;11.90;;;5.87;;
11078;SDS011;5592;49.234;7.268;2022-07-06T04:13:16;7.43;;;6.50;;
11078;SDS011;5592;49.234;7.268;2022-07-06T04:15:42;7.23;;;5.90;;
11078;SDS011;5592;49.234;7.268;2022-07-06T04:18:08;13.57;;;6.77;;
11078;SDS011;5592;49.234;7.268;2022-07-06T04:20:33;11.57;;;7.40;;
11078;SDS011;5592;49.234;7.268;2022-07-06T04:22:59;6.33;;;5.40;;
11078;SDS011;5592;49.234;7.268;2022-07-06T04:25:25;7.40;;;4.97;;
11078;SDS011;5592;49.234;7.268;2022-07-06T04:27:51;5.80;;;5.13;;
11078;SDS011;5592;49.234;7.268;2022-07-06T04:30:17;6.83;;;5.20;;
11078;SDS011;5592;49.234;7.268;2022-07-06T04:32:42;7.23;;;5.00;;
11078;SDS011;5592;49.234;7.268;2022-07-06T04:35:08;4.73;;;4.27;;
11078;SDS011;5592;49.234;7.268;2022-07-06T04:37:34;5.43;;;4.30;;
11078;SDS011;5592;49.234;7.268;2022-07-06T04:39:59;4.60;;;4.20;;
11078;SDS011;5592;49.234;7.268;2022-07-06T04:42:25;4.30;;;3.90;;
11078;SDS011;5592;49.234;7.268;2022-07-06T04:44:51;7.40;;;4.40;;
11078;SDS011;5592;49.234;7.268;2022-07-06T04:47:16;5.73;;;4.40;;
11078;SDS011;5592;49.234;7.268;2022-07-06T04:49:42;12.20;;;4.50;;
11078;SDS011;5592;49.234;7.268;2022-07-06T04:52:08;4.67;;;3.83;;
11078;SDS011;5592;49.234;7.268;2022-07-06T04:54:34;8.30;;;3.73;;
11078;SDS011;5592;49.234;7.268;2022-07-06T04:57:02;3.70;;;3.40;;
11078;SDS011;5592;49.234;7.268;2022-07-06T04:59:28;5.63;;;3.33;;
11078;SDS011;5592;49.234;7.268;2022-07-06T05:01:54;3.20;;;2.80;;
11078;SDS011;5592;49.234;7.268;2022-07-06T05:04:19;3.77;;;2.20;;
11078;SDS011;5592;49.234;7.268;2022-07-06T05:06:45;3.83;;;2.40;;
11078;SDS011;5592;49.234;7.268;2022-07-06T05:09:12;4.57;;;2.40;;
11078;SDS011;5592;49.234;7.268;2022-07-06T05:11:38;2.70;;;1.83;;
11078;SDS011;5592;49.234;7.268;2022-07-06T05:14:04;6.63;;;1.43;;
11078;SDS011;5592;49.234;7.268;2022-07-06T05:16:30;5.23;;;1.60;;
11078;SDS011;5592;49.234;7.268;2022-07-06T05:18:57;5.17;;;1.70;;
11078;SDS011;5592;49.234;7.268;2022-07-06T05:21:22;2.37;;;1.60;;
11078;SDS011;5592;49.234;7.268;2022-07-06T05:23:48;4.53;;;1.90;;
11078;SDS011;5592;49.234;7.268;2022-07-06T05:26:14;3.50;;;1.80;;
11078;SDS011;5592;49.234;7.268;2022-07-06T05:28:39;4.50;;;2.17;;
11078;SDS011;5592;49.234;7.268;2022-07-06T05:31:05;3.23;;;1.93;;
11078;SDS011;5592;49.234;7.268;2022-07-06T05:33:31;7.53;;;1.60;;
11078;SDS011;5592;49.234;7.268;2022-07-06T05:35:56;1.83;;;1.50;;
11078;SDS011;5592;49.234;7.268;2022-07-06T05:38:22;3.63;;;1.70;;
11078;SDS011;5592;49.234;7.268;2022-07-06T05:40:50;2.40;;;1.73;;
11078;SDS011;5592;49.234;7.268;2022-07-06T05:43:16;2.37;;;1.60;;
11078;SDS011;5592;49.234;7.268;2022-07-06T05:45:42;2.90;;;1.47;;
11078;SDS011;5592;49.234;7.268;2022-07-06T05:48:08;2.30;;;1.57;;
11078;SDS011;5592;49.234;7.268;2022-07-06T05:50:53;3.27;;;1.83;;
11078;SDS011;5592;49.234;7.268;2022-07-06T05:53:18;2.80;;;1.70;;
11078;SDS011;5592;49.234;7.268;2022-07-06T05:55:44;2.07;;;1.60;;
11078;SDS011;5592;49.234;7.268;2022-07-06T05:58:13;2.30;;;1.50;;
11078;SDS011;5592;49.234;7.268;2022-07-06T06:00:39;1.40;;;1.30;;
11078;SDS011;5592;49.234;7.268;2022-07-06T06:03:05;4.53;;;1.90;;
11078;SDS011;5592;49.234;7.268;2022-07-06T06:05:31;3.50;;;1.60;;
11078;SDS011;5592;49.234;7.268;2022-07-06T06:07:56;4.20;;;2.00;;
11078;SDS011;5592;49.234;7.268;2022-07-06T06:10:25;2.87;;;1.70;;
11078;SDS011;5592;49.234;7.268;2022-07-06T06:12:50;4.40;;;1.53;;
11078;SDS011;5592;49.234;7.268;2022-07-06T06:15:16;3.03;;;1.57;;
11078;SDS011;5592;49.234;7.268;2022-07-06T06:17:45;3.53;;;1.53;;
11078;SDS011;5592;49.234;7.268;2022-07-06T06:20:12;3.40;;;1.60;;
11078;SDS011;5592;49.234;7.268;2022-07-06T06:25:18;2.17;;;1.70;;
11078;SDS011;5592;49.234;7.268;2022-07-06T06:27:45;2.27;;;1.43;;
11078;SDS011;5592;49.234;7.268;2022-07-06T06:30:12;3.47;;;1.50;;
11078;SDS011;5592;49.234;7.268;2022-07-06T06:32:38;2.73;;;1.50;;
11078;SDS011;5592;49.234;7.268;2022-07-06T06:35:05;4.40;;;1.77;;
11078;SDS011;5592;49.234;7.268;2022-07-06T06:37:31;3.00;;;1.60;;
11078;SDS011;5592;49.234;7.268;2022-07-06T06:39:59;2.45;;;1.58;;
11078;SDS011;5592;49.234;7.268;2022-07-06T06:42:24;2.58;;;1.88;;
11078;SDS011;5592;49.234;7.268;2022-07-06T06:44:50;2.45;;;1.75;;
11078;SDS011;5592;49.234;7.268;2022-07-06T06:47:16;2.85;;;1.33;;
11078;SDS011;5592;49.234;7.268;2022-07-06T06:49:41;2.10;;;1.40;;
11078;SDS011;5592;49.234;7.268;2022-07-06T06:52:07;4.15;;;1.65;;
11078;SDS011;5592;49.234;7.268;2022-07-06T06:54:32;2.08;;;1.45;;
11078;SDS011;5592;49.234;7.268;2022-07-06T06:56:58;4.20;;;1.80;;
11078;SDS011;5592;49.234;7.268;2022-07-06T06:59:23;7.22;;;1.80;;
11078;SDS011;5592;49.234;7.268;2022-07-06T07:01:49;4.55;;;1.63;;
11078;SDS011;5592;49.234;7.268;2022-07-06T07:04:15;3.78;;;1.63;;
11078;SDS011;5592;49.234;7.268;2022-07-06T07:06:40;2.80;;;1.65;;
11078;SDS011;5592;49.234;7.268;2022-07-06T07:09:09;3.45;;;1.83;;
11078;SDS011;5592;49.234;7.268;2022-07-06T07:11:34;4.47;;;1.70;;
11078;SDS011;5592;49.234;7.268;2022-07-06T07:14:00;2.83;;;1.83;;
11078;SDS011;5592;49.234;7.268;2022-07-06T07:16:26;4.43;;;1.77;;
11078;SDS011;5592;49.234;7.268;2022-07-06T07:18:52;3.10;;;1.80;;
11078;SDS011;5592;49.234;7.268;2022-07-06T07:21:18;3.25;;;1.80;;
11078;SDS011;5592;49.234;7.268;2022-07-06T07:23:44;3.17;;;1.63;;
11078;SDS011;5592;49.234;7.268;2022-07-06T07:26:09;5.07;;;1.70;;
11078;SDS011;5592;49.234;7.268;2022-07-06T07:28:35;2.33;;;1.65;;
11078;SDS011;5592;49.234;7.268;2022-07-06T07:31:01;5.95;;;1.88;;
11078;SDS011;5592;49.234;7.268;2022-07-06T07:33:26;2.17;;;1.55;;
11078;SDS011;5592;49.234;7.268;2022-07-06T07:35:52;2.78;;;1.60;;
11078;SDS011;5592;49.234;7.268;2022-07-06T07:38:17;4.68;;;1.92;;
11078;SDS011;5592;49.234;7.268;2022-07-06T07:40:43;4.82;;;1.58;;
11078;SDS011;5592;49.234;7.268;2022-07-06T07:43:09;3.05;;;1.50;;
11078;SDS011;5592;49.234;7.268;2022-07-06T07:45:34;3.00;;;1.70;;
11078;SDS011;5592;49.234;7.268;2022-07-06T07:48:00;4.13;;;1.90;;
11078;SDS011;5592;49.234;7.268;2022-07-06T07:50:26;6.40;;;2.53;;
11078;SDS011;5592;49.234;7.268;2022-07-06T07:52:51;2.38;;;1.60;;
11078;SDS011;5592;49.234;7.268;2022-07-06T07:55:17;3.55;;;1.90;;
11078;SDS011;5592;49.234;7.268;2022-07-06T07:57:43;3.03;;;1.73;;
11078;SDS011;5592;49.234;7.268;2022-07-06T08:00:09;4.47;;;1.50;;
11078;SDS011;5592;49.234;7.268;2022-07-06T08:02:38;5.60;;;1.80;;
11078;SDS011;5592;49.234;7.268;2022-07-06T08:05:03;5.93;;;2.00;;
11078;SDS011;5592;49.234;7.268;2022-07-06T08:07:29;4.55;;;1.73;;
11078;SDS011;5592;49.234;7.268;2022-07-06T08:09:55;2.10;;;1.58;;
11078;SDS011;5592;49.234;7.268;2022-07-06T08:12:21;5.32;;;1.80;;
11078;SDS011;5592;49.234;7.268;2022-07-06T08:14:47;3.08;;;2.00;;
11078;SDS011;5592;49.234;7.268;2022-07-06T08:17:12;4.18;;;2.28;;
11078;SDS011;5592;49.234;7.268;2022-07-06T08:19:38;4.93;;;1.73;;
11078;SDS011;5592;49.234;7.268;2022-07-06T08:22:04;3.40;;;1.90;;
11078;SDS011;5592;49.234;7.268;2022-07-06T08:24:35;2.63;;;1.60;;
11078;SDS011;5592;49.234;7.268;2022-07-06T08:27:01;4.32;;;1.60;;
11078;SDS011;5592;49.234;7.268;2022-07-06T08:29:28;3.50;;;1.98;;
11078;SDS011;5592;49.234;7.268;2022-07-06T08:31:54;1.80;;;1.50;;
11078;SDS011;5592;49.234;7.268;2022-07-06T08:34:20;1.67;;;1.40;;
11078;SDS011;5592;49.234;7.268;2022-07-06T08:36:45;2.20;;;1.55;;
11078;SDS011;5592;49.234;7.268;2022-07-06T08:39:11;4.40;;;1.88;;
11078;SDS011;5592;49.234;7.268;2022-07-06T08:41:36;1.77;;;1.67;;
11078;SDS011;5592;49.234;7.268;2022-07-06T08:44:06;2.05;;;1.20;;
11078;SDS011;5592;49.234;7.268;2022-07-06T08:46:33;2.63;;;1.90;;
11078;SDS011;5592;49.234;7.268;2022-07-06T08:48:59;2.53;;;1.30;;
11078;SDS011;5592;49.234;7.268;2022-07-06T08:51:25;2.00;;;1.65;;
11078;SDS011;5592;49.234;7.268;2022-07-06T08:53:53;3.15;;;1.50;;
11078;SDS011;5592;49.234;7.268;2022-07-06T08:56:21;2.63;;;1.30;;
11078;SDS011;5592;49.234;7.268;2022-07-06T08:58:47;2.60;;;1.60;;
11078;SDS011;5592;49.234;7.268;2022-07-06T09:01:13;2.38;;;1.52;;
11078;SDS011;5592;49.234;7.268;2022-07-06T09:03:41;3.35;;;1.45;;
11078;SDS011;5592;49.234;7.268;2022-07-06T09:06:10;4.38;;;1.65;;
11078;SDS011;5592;49.234;7.268;2022-07-06T09:08:39;2.33;;;1.65;;
11078;SDS011;5592;49.234;7.268;2022-07-06T09:11:05;2.45;;;1.50;;
11078;SDS011;5592;49.234;7.268;2022-07-06T09:13:30;2.92;;;1.50;;
11078;SDS011;5592;49.234;7.268;2022-07-06T09:15:56;1.92;;;1.60;;
11078;SDS011;5592;49.234;7.268;2022-07-06T09:18:37;3.22;;;1.50;;
11078;SDS011;5592;49.234;7.268;2022-07-06T09:21:07;3.75;;;1.95;;
11078;SDS011;5592;49.234;7.268;2022-07-06T09:23:33;2.65;;;1.50;;
11078;SDS011;5592;49.234;7.268;2022-07-06T09:26:01;3.50;;;1.70;;
11078;SDS011;5592;49.234;7.268;2022-07-06T09:28:41;6.47;;;1.58;;
11078;SDS011;5592;49.234;7.268;2022-07-06T09:31:07;2.17;;;1.50;;
11078;SDS011;5592;49.234;7.268;2022-07-06T09:33:34;1.70;;;1.60;;
11078;SDS011;5592;49.234;7.268;2022-07-06T09:36:00;1.60;;;1.50;;
11078;SDS011;5592;49.234;7.268;2022-07-06T09:38:27;2.72;;;1.70;;
11078;SDS011;5592;49.234;7.268;2022-07-06T09:40:53;3.53;;;1.77;;
11078;SDS011;5592;49.234;7.268;2022-07-06T09:43:20;2.90;;;1.58;;
11078;SDS011;5592;49.234;7.268;2022-07-06T09:45:56;2.65;;;1.67;;
11078;SDS011;5592;49.234;7.268;2022-07-06T09:48:22;3.75;;;1.70;;
11078;SDS011;5592;49.234;7.268;2022-07-06T09:50:50;3.22;;;1.50;;
11078;SDS011;5592;49.234;7.268;2022-07-06T09:53:18;2.15;;;1.70;;
11078;SDS011;5592;49.234;7.268;2022-07-06T09:55:48;3.35;;;1.70;;
11078;SDS011;5592;49.234;7.268;2022-07-06T09:58:18;3.03;;;1.80;;
11078;SDS011;5592;49.234;7.268;2022-07-06T10:00:45;2.92;;;1.50;;
11078;SDS011;5592;49.234;7.268;2022-07-06T10:03:12;5.72;;;1.83;;
11078;SDS011;5592;49.234;7.268;2022-07-06T10:05:45;2.72;;;1.60;;
11078;SDS011;5592;49.234;7.268;2022-07-06T10:08:14;1.95;;;1.58;;
11078;SDS011;5592;49.234;7.268;2022-07-06T10:10:42;4.07;;;1.83;;
11078;SDS011;5592;49.234;7.268;2022-07-06T10:13:09;4.50;;;1.70;;
11078;SDS011;5592;49.234;7.268;2022-07-06T10:15:39;2.13;;;1.70;;
11078;SDS011;5592;49.234;7.268;2022-07-06T10:18:09;3.45;;;1.63;;
11078;SDS011;5592;49.234;7.268;2022-07-06T10:20:36;1.43;;;1.13;;
11078;SDS011;5592;49.234;7.268;2022-07-06T10:23:04;2.80;;;1.70;;
11078;SDS011;5592;49.234;7.268;2022-07-06T10:25:32;2.10;;;1.67;;
11078;SDS011;5592;49.234;7.268;2022-07-06T10:27:59;1.95;;;1.50;;
11078;SDS011;5592;49.234;7.268;2022-07-06T10:30:25;3.78;;;1.60;;
11078;SDS011;5592;49.234;7.268;2022-07-06T10:32:53;3.85;;;1.77;;
11078;SDS011;5592;49.234;7.268;2022-07-06T10:35:21;3.15;;;1.50;;
11078;SDS011;5592;49.234;7.268;2022-07-06T10:38:03;1.73;;;1.30;;
11078;SDS011;5592;49.234;7.268;2022-07-06T10:40:33;2.67;;;1.48;;
11078;SDS011;5592;49.234;7.268;2022-07-06T10:43:22;4.60;;;1.90;;
11078;SDS011;5592;49.234;7.268;2022-07-06T10:50:49;2.70;;;1.90;;
11078;SDS011;5592;49.234;7.268;2022-07-06T10:53:17;3.67;;;1.40;;
11078;SDS011;5592;49.234;7.268;2022-07-06T10:55:47;3.50;;;1.73;;
11078;SDS011;5592;49.234;7.268;2022-07-06T10:58:37;2.10;;;1.20;;
11078;SDS011;5592;49.234;7.268;2022-07-06T11:01:16;1.60;;;1.50;;
11078;SDS011;5592;49.234;7.268;2022-07-06T11:06:09;2.33;;;1.57;;
11078;SDS011;5592;49.234;7.268;2022-07-06T11:11:20;1.90;;;1.70;;
11078;SDS011;5592;49.234;7.268;2022-07-06T11:16:22;6.10;;;1.50;;
11078;SDS011;5592;49.234;7.268;2022-07-06T11:24:21;3.50;;;1.40;;
11078;SDS011;5592;49.234;7.268;2022-07-06T11:26:49;3.00;;;1.40;;
11078;SDS011;5592;49.234;7.268;2022-07-06T11:29:17;3.97;;;1.47;;
11078;SDS011;5592;49.234;7.268;2022-07-06T11:31:46;2.23;;;1.17;;
11078;SDS011;5592;49.234;7.268;2022-07-06T11:34:17;1.20;;;1.10;;
11078;SDS011;5592;49.234;7.268;2022-07-06T11:36:44;1.60;;;1.23;;
11078;SDS011;5592;49.234;7.268;2022-07-06T11:39:09;2.07;;;1.30;;
11078;SDS011;5592;49.234;7.268;2022-07-06T11:41:35;3.03;;;1.27;;
11078;SDS011;5592;49.234;7.268;2022-07-06T11:44:02;3.40;;;1.50;;
11078;SDS011;5592;49.234;7.268;2022-07-06T11:48:55;2.07;;;1.43;;
11078;SDS011;5592;49.234;7.268;2022-07-06T11:51:23;5.43;;;1.40;;
11078;SDS011;5592;49.234;7.268;2022-07-06T11:53:51;5.50;;;1.60;;
11078;SDS011;5592;49.234;7.268;2022-07-06T11:56:19;2.93;;;1.30;;
11078;SDS011;5592;49.234;7.268;2022-07-06T11:58:46;1.63;;;1.30;;
11078;SDS011;5592;49.234;7.268;2022-07-06T12:01:14;3.60;;;1.37;;
11078;SDS011;5592;49.234;7.268;2022-07-06T12:06:14;5.13;;;1.37;;
11078;SDS011;5592;49.234;7.268;2022-07-06T12:08:42;1.80;;;1.30;;
11078;SDS011;5592;49.234;7.268;2022-07-06T12:11:17;3.00;;;1.30;;
11078;SDS011;5592;49.234;7.268;2022-07-06T12:13:54;2.70;;;1.50;;
11078;SDS011;5592;49.234;7.268;2022-07-06T12:16:35;1.87;;;1.27;;
11078;SDS011;5592;49.234;7.268;2022-07-06T12:19:04;1.40;;;1.30;;
11078;SDS011;5592;49.234;7.268;2022-07-06T12:21:30;1.30;;;1.10;;
11078;SDS011;5592;49.234;7.268;2022-07-06T12:23:57;1.20;;;1.10;;
11078;SDS011;5592;49.234;7.268;2022-07-06T12:26:23;3.40;;;1.83;;
11078;SDS011;5592;49.234;7.268;2022-07-06T12:31:34;2.80;;;1.03;;
11078;SDS011;5592;49.234;7.268;2022-07-06T12:34:00;1.47;;;1.30;;
11078;SDS011;5592;49.234;7.268;2022-07-06T12:36:26;1.20;;;1.10;;
11078;SDS011;5592;49.234;7.268;2022-07-06T12:38:52;1.43;;;1.00;;
11078;SDS011;5592;49.234;7.268;2022-07-06T12:41:24;4.37;;;1.20;;
11078;SDS011;5592;49.234;7.268;2022-07-06T12:44:05;4.53;;;1.60;;
11078;SDS011;5592;49.234;7.268;2022-07-06T12:46:33;4.83;;;1.90;;
11078;SDS011;5592;49.234;7.268;2022-07-06T12:49:24;2.83;;;1.27;;
11078;SDS011;5592;49.234;7.268;2022-07-06T12:51:53;1.90;;;1.10;;
11078;SDS011;5592;49.234;7.268;2022-07-06T12:54:20;3.83;;;1.50;;
11078;SDS011;5592;49.234;7.268;2022-07-06T12:59:40;8.07;;;1.10;;
11078;SDS011;5592;49.234;7.268;2022-07-06T13:02:06;1.97;;;1.43;;
11078;SDS011;5592;49.234;7.268;2022-07-06T13:04:35;1.73;;;1.30;;
11078;SDS011;5592;49.234;7.268;2022-07-06T13:07:02;2.17;;;1.30;;
11078;SDS011;5592;49.234;7.268;2022-07-06T13:09:29;5.33;;;1.47;;
11078;SDS011;5592;49.234;7.268;2022-07-06T13:11:55;1.60;;;1.07;;
11078;SDS011;5592;49.234;7.268;2022-07-06T13:14:21;1.20;;;1.10;;
11078;SDS011;5592;49.234;7.268;2022-07-06T13:16:47;4.37;;;1.60;;
11078;SDS011;5592;49.234;7.268;2022-07-06T13:19:13;2.97;;;1.20;;
11078;SDS011;5592;49.234;7.268;2022-07-06T13:21:39;1.70;;;1.10;;
11078;SDS011;5592;49.234;7.268;2022-07-06T13:24:06;5.03;;;1.10;;
11078;SDS011;5592;49.234;7.268;2022-07-06T13:26:32;2.50;;;1.10;;
11078;SDS011;5592;49.234;7.268;2022-07-06T13:28:59;4.37;;;1.57;;
11078;SDS011;5592;49.234;7.268;2022-07-06T13:31:25;1.70;;;0.97;;
11078;SDS011;5592;49.234;7.268;2022-07-06T13:33:52;4.40;;;1.63;;
11078;SDS011;5592;49.234;7.268;2022-07-06T13:36:18;1.33;;;1.23;;
11078;SDS011;5592;49.234;7.268;2022-07-06T13:38:44;5.70;;;1.03;;
11078;SDS011;5592;49.234;7.268;2022-07-06T13:41:10;1.60;;;1.10;;
11078;SDS011;5592;49.234;7.268;2022-07-06T13:43:35;8.90;;;1.13;;
11078;SDS011;5592;49.234;7.268;2022-07-06T13:46:04;2.97;;;1.03;;
11078;SDS011;5592;49.234;7.268;2022-07-06T13:48:31;1.70;;;1.17;;
11078;SDS011;5592;49.234;7.268;2022-07-06T13:50:58;2.83;;;1.27;;
11078;SDS011;5592;49.234;7.268;2022-07-06T13:53:24;1.60;;;1.00;;
11078;SDS011;5592;49.234;7.268;2022-07-06T13:55:49;2.40;;;1.33;;
11078;SDS011;5592;49.234;7.268;2022-07-06T13:58:15;1.50;;;1.03;;
11078;SDS011;5592;49.234;7.268;2022-07-06T14:00:41;1.30;;;1.17;;
11078;SDS011;5592;49.234;7.268;2022-07-06T14:03:07;1.97;;;1.10;;
11078;SDS011;5592;49.234;7.268;2022-07-06T14:05:33;3.20;;;0.97;;
11078;SDS011;5592;49.234;7.268;2022-07-06T14:07:59;2.90;;;1.10;;
11078;SDS011;5592;49.234;7.268;2022-07-06T14:10:26;4.70;;;1.27;;
11078;SDS011;5592;49.234;7.268;2022-07-06T14:12:51;16.23;;;1.10;;
11078;SDS011;5592;49.234;7.268;2022-07-06T14:15:17;1.57;;;0.97;;
11078;SDS011;5592;49.234;7.268;2022-07-06T14:17:43;1.67;;;1.00;;
11078;SDS011;5592;49.234;7.268;2022-07-06T14:20:09;3.60;;;1.20;;
11078;SDS011;5592;49.234;7.268;2022-07-06T14:22:36;1.40;;;1.10;;
11078;SDS011;5592;49.234;7.268;2022-07-06T14:25:02;1.60;;;1.07;;
11078;SDS011;5592;49.234;7.268;2022-07-06T14:27:28;2.00;;;1.17;;
11078;SDS011;5592;49.234;7.268;2022-07-06T14:29:53;3.80;;;1.27;;
11078;SDS011;5592;49.234;7.268;2022-07-06T14:32:19;1.20;;;1.10;;
11078;SDS011;5592;49.234;7.268;2022-07-06T14:34:45;1.90;;;0.97;;
11078;SDS011;5592;49.234;7.268;2022-07-06T14:37:10;4.20;;;1.17;;
11078;SDS011;5592;49.234;7.268;2022-07-06T14:39:36;2.30;;;0.90;;
11078;SDS011;5592;49.234;7.268;2022-07-06T14:42:02;4.70;;;1.07;;
11078;SDS011;5592;49.234;7.268;2022-07-06T14:44:28;2.60;;;0.90;;
11078;SDS011;5592;49.234;7.268;2022-07-06T14:46:53;2.50;;;1.20;;
11078;SDS011;5592;49.234;7.268;2022-07-06T14:49:19;4.90;;;1.30;;
11078;SDS011;5592;49.234;7.268;2022-07-06T14:51:44;2.07;;;1.00;;
11078;SDS011;5592;49.234;7.268;2022-07-06T14:54:10;3.13;;;1.00;;
11078;SDS011;5592;49.234;7.268;2022-07-06T14:56:36;2.17;;;1.30;;
11078;SDS011;5592;49.234;7.268;2022-07-06T14:59:05;2.37;;;1.23;;
11078;SDS011;5592;49.234;7.268;2022-07-06T15:01:30;3.40;;;1.00;;
11078;SDS011;5592;49.234;7.268;2022-07-06T15:03:56;1.17;;;0.97;;
11078;SDS011;5592;49.234;7.268;2022-07-06T15:06:21;1.10;;;0.90;;
11078;SDS011;5592;49.234;7.268;2022-07-06T15:08:47;2.80;;;1.13;;
11078;SDS011;5592;49.234;7.268;2022-07-06T15:11:13;1.87;;;1.10;;
11078;SDS011;5592;49.234;7.268;2022-07-06T15:13:38;2.30;;;1.20;;
11078;SDS011;5592;49.234;7.268;2022-07-06T15:16:04;1.00;;;0.90;;
11078;SDS011;5592;49.234;7.268;2022-07-06T15:18:30;1.33;;;0.90;;
11078;SDS011;5592;49.234;7.268;2022-07-06T15:20:56;6.87;;;1.27;;
11078;SDS011;5592;49.234;7.268;2022-07-06T15:23:22;2.00;;;1.20;;
11078;SDS011;5592;49.234;7.268;2022-07-06T15:25:48;2.10;;;0.90;;
11078;SDS011;5592;49.234;7.268;2022-07-06T15:28:14;5.80;;;1.40;;
11078;SDS011;5592;49.234;7.268;2022-07-06T15:30:41;2.10;;;1.00;;
11078;SDS011;5592;49.234;7.268;2022-07-06T15:33:06;1.40;;;1.30;;
11078;SDS011;5592;49.234;7.268;2022-07-06T15:35:33;3.37;;;1.40;;